createdAt,value
2018-02-09T00:01:21.372Z,98335.15
2018-02-09T00:03:49.954Z,98340.39
2018-02-09T00:06:17.556Z,98347.06
2018-02-09T00:08:45.130Z,98355.31
2018-02-09T00:11:12.763Z,98358.67
2018-02-09T00:13:40.376Z,98357.49
2018-02-09T00:16:07.955Z,98352.30
2018-02-09T00:18:35.836Z,98351.96
2018-02-09T00:21:03.426Z,98358.61
2018-02-09T00:23:31.040Z,98363.41
2018-02-09T00:25:58.681Z,98364.33
2018-02-09T00:28:26.248Z,98362.90
2018-02-09T00:30:53.824Z,98361.22
2018-02-09T00:33:21.476Z,98369.23
2018-02-09T00:35:49.118Z,98372.66
2018-02-09T00:38:16.720Z,98376.05
2018-02-09T00:40:44.320Z,98376.45
2018-02-09T00:43:12.402Z,98381.23
2018-02-09T00:45:39.986Z,98383.84
2018-02-09T00:48:07.697Z,98384.38
2018-02-09T00:50:38.867Z,98380.18
2018-02-09T00:53:06.424Z,98385.91
2018-02-09T00:55:34.240Z,98373.17
2018-02-09T00:58:01.797Z,98374.68
2018-02-09T01:00:29.398Z,98375.53
2018-02-09T01:02:59.783Z,98378.30
2018-02-09T01:05:27.449Z,98384.02
2018-02-09T01:07:55.058Z,98378.79
2018-02-09T01:10:22.747Z,98374.75
2018-02-09T01:12:50.398Z,98374.59
2018-02-09T01:15:17.965Z,98369.30
2018-02-09T01:17:45.589Z,98376.03
2018-02-09T01:20:13.157Z,98374.34
2018-02-09T01:22:40.795Z,98375.19
2018-02-09T01:25:08.428Z,98371.66
2018-02-09T01:27:36.065Z,98370.39
2018-02-09T01:30:03.694Z,98364.85
2018-02-09T01:32:31.344Z,98372.56
2018-02-09T01:34:58.917Z,98376.92
2018-02-09T01:37:26.505Z,98380.10
2018-02-09T01:39:54.126Z,98375.86
2018-02-09T01:42:22.595Z,98383.80
2018-02-09T01:47:17.271Z,98374.91
2018-02-09T01:49:44.895Z,98371.29
2018-02-09T01:52:12.451Z,98361.38
2018-02-09T01:54:40.060Z,98366.66
2018-02-09T01:57:07.657Z,98353.56
2018-02-09T01:59:35.222Z,98358.48
2018-02-09T02:02:02.837Z,98356.80
2018-02-09T02:04:30.428Z,98352.31
2018-02-09T02:06:58.013Z,98359.55
2018-02-09T02:09:25.901Z,98362.35
2018-02-09T02:11:53.477Z,98359.77
2018-02-09T02:14:21.053Z,98361.97
2018-02-09T02:16:48.697Z,98357.00
2018-02-09T02:19:16.295Z,98352.64
2018-02-09T02:21:43.906Z,98353.03
2018-02-09T02:24:12.080Z,98356.44
2018-02-09T02:26:39.644Z,98353.36
2018-02-09T02:29:07.248Z,98342.10
2018-02-09T02:31:34.857Z,98342.20
2018-02-09T02:34:02.445Z,98346.73
2018-02-09T02:36:30.026Z,98349.38
2018-02-09T02:38:57.706Z,98355.82
2018-02-09T02:41:25.259Z,98356.59
2018-02-09T02:43:52.849Z,98357.88
2018-02-09T02:46:21.160Z,98346.58
2018-02-09T02:48:48.719Z,98343.27
2018-02-09T02:51:16.276Z,98339.64
2018-02-09T02:53:43.920Z,98341.53
2018-02-09T02:56:11.489Z,98339.72
2018-02-09T02:58:39.087Z,98340.75
2018-02-09T03:01:06.711Z,98347.97
2018-02-09T03:03:34.301Z,98343.53
2018-02-09T03:06:01.938Z,98341.51
2018-02-09T03:08:29.550Z,98339.59
2018-02-09T03:10:57.112Z,98339.67
2018-02-09T03:13:24.666Z,98338.84
2018-02-09T03:15:52.305Z,98342.38
2018-02-09T03:18:19.864Z,98338.20
2018-02-09T03:20:47.437Z,98338.36
2018-02-09T03:23:15.268Z,98352.81
2018-02-09T03:25:42.899Z,98345.17
2018-02-09T03:28:10.496Z,98349.98
2018-02-09T03:30:38.112Z,98353.39
2018-02-09T03:33:05.691Z,98360.05
2018-02-09T03:35:33.324Z,98355.31
2018-02-09T03:38:00.931Z,98362.87
2018-02-09T03:40:28.506Z,98366.05
2018-02-09T03:42:56.084Z,98366.38
2018-02-09T03:45:23.698Z,98375.46
2018-02-09T03:47:51.605Z,98378.57
2018-02-09T03:50:19.204Z,98380.83
2018-02-09T03:52:46.807Z,98370.09
2018-02-09T03:55:14.429Z,98380.59
2018-02-09T03:57:41.975Z,98384.04
2018-02-09T04:00:09.827Z,98389.85
2018-02-09T04:02:37.468Z,98382.52
2018-02-09T04:05:05.054Z,98389.45
2018-02-09T04:07:32.687Z,98393.50
2018-02-09T04:10:00.250Z,98395.41
2018-02-09T04:12:28.314Z,98395.44
2018-02-09T04:14:55.944Z,98398.08
2018-02-09T04:17:23.502Z,98387.56
2018-02-09T04:19:51.060Z,98390.63
2018-02-09T04:22:18.741Z,98395.33
2018-02-09T04:24:46.306Z,98393.50
2018-02-09T04:27:13.968Z,98389.23
2018-02-09T04:29:41.645Z,98392.23
2018-02-09T04:32:09.199Z,98381.53
2018-02-09T04:34:36.773Z,98376.58
2018-02-09T04:37:05.173Z,98373.25
2018-02-09T04:39:32.757Z,98377.48
2018-02-09T04:42:00.437Z,98371.95
2018-02-09T04:44:28.339Z,98378.36
2018-02-09T04:46:55.903Z,98376.95
2018-02-09T04:49:23.511Z,98374.16
2018-02-09T04:51:51.165Z,98379.66
2018-02-09T04:54:18.720Z,98378.45
2018-02-09T04:56:46.300Z,98389.44
2018-02-09T04:59:13.925Z,98383.97
2018-02-09T05:01:41.530Z,98390.20
2018-02-09T05:04:09.110Z,98386.63
2018-02-09T05:06:37.392Z,98378.91
2018-02-09T05:09:05.099Z,98376.67
2018-02-09T05:11:32.677Z,98374.84
2018-02-09T05:14:00.299Z,98379.84
2018-02-09T05:16:27.852Z,98379.63
2018-02-09T05:18:55.431Z,98383.22
2018-02-09T05:21:23.134Z,98392.73
2018-02-09T05:23:50.700Z,98396.91
2018-02-09T05:26:18.267Z,98395.42
2018-02-09T05:28:45.884Z,98396.64
2018-02-09T05:31:13.682Z,98399.50
2018-02-09T05:33:41.260Z,98400.10
2018-02-09T05:36:08.898Z,98405.70
2018-02-09T05:38:36.464Z,98407.69
2018-02-09T05:41:04.040Z,98403.46
2018-02-09T05:43:31.686Z,98406.77
2018-02-09T05:46:00.340Z,98414.63
2018-02-09T05:48:27.942Z,98415.50
2018-02-09T05:50:56.021Z,98418.03
2018-02-09T05:53:23.730Z,98422.84
2018-02-09T05:55:51.324Z,98430.06
2018-02-09T05:58:19.008Z,98435.01
2018-02-09T06:00:46.584Z,98440.08
2018-02-09T06:03:14.149Z,98443.48
2018-02-09T06:05:41.786Z,98438.16
2018-02-09T06:08:09.435Z,98451.22
2018-02-09T06:10:37.027Z,98462.45
2018-02-09T06:13:04.818Z,98463.29
2018-02-09T06:15:32.765Z,98464.28
2018-02-09T06:18:00.423Z,98468.53
2018-02-09T06:20:28.126Z,98475.48
2018-02-09T06:22:55.712Z,98473.88
2018-02-09T06:25:24.810Z,98470.16
2018-02-09T06:27:52.502Z,98472.50
2018-02-09T06:30:20.313Z,98471.19
2018-02-09T06:32:48.114Z,98469.45
2018-02-09T06:35:17.758Z,98474.56
2018-02-09T06:37:45.431Z,98470.78
2018-02-09T06:40:13.198Z,98468.80
2018-02-09T06:42:40.971Z,98468.20
2018-02-09T06:45:09.483Z,98467.26
2018-02-09T06:47:37.129Z,98469.84
2018-02-09T06:50:04.761Z,98471.22
2018-02-09T06:52:32.459Z,98461.13
2018-02-09T06:55:00.035Z,98459.91
2018-02-09T06:57:27.907Z,98466.13
2018-02-09T06:59:57.765Z,98465.53
2018-02-09T07:02:25.332Z,98472.19
2018-02-09T07:04:52.964Z,98480.28
2018-02-09T07:07:20.531Z,98484.45
2018-02-09T07:09:48.120Z,98481.23
2018-02-09T07:12:15.788Z,98481.38
2018-02-09T07:14:43.429Z,98494.05
2018-02-09T07:17:11.077Z,98493.85
2018-02-09T07:19:38.806Z,98509.13
2018-02-09T07:22:06.627Z,98506.41
2018-02-09T07:24:34.294Z,98499.78
2018-02-09T07:27:02.429Z,98497.64
2018-02-09T07:29:30.013Z,98499.66
2018-02-09T07:31:57.601Z,98494.84
2018-02-09T07:34:25.365Z,98501.64
2018-02-09T07:36:52.941Z,98500.83
2018-02-09T07:39:20.532Z,98507.95
2018-02-09T07:41:48.222Z,98504.79
2018-02-09T07:44:15.846Z,98500.52
2018-02-09T07:46:44.180Z,98501.01
2018-02-09T07:49:11.816Z,98501.14
2018-02-09T07:51:39.497Z,98508.56
2018-02-09T07:54:07.260Z,98504.71
2018-02-09T07:56:34.887Z,98507.25
2018-02-09T07:59:02.451Z,98497.63
2018-02-09T08:01:30.018Z,98503.24
2018-02-09T08:03:57.663Z,98503.92
2018-02-09T08:06:25.336Z,98500.96
2018-02-09T08:08:52.917Z,98498.15
2018-02-09T08:11:20.534Z,98491.77
2018-02-09T08:13:48.157Z,98487.86
2018-02-09T08:16:15.721Z,98482.91
2018-02-09T08:18:43.377Z,98490.53
2018-02-09T08:21:11.380Z,98477.56
2018-02-09T08:23:39.022Z,98471.80
2018-02-09T08:26:06.680Z,98472.34
2018-02-09T08:28:34.248Z,98463.69
2018-02-09T08:31:01.896Z,98462.25
2018-02-09T08:33:29.657Z,98456.69
2018-02-09T08:35:57.233Z,98452.22
2018-02-09T08:38:24.874Z,98444.60
2018-02-09T08:40:52.490Z,98439.17
2018-02-09T08:43:20.057Z,98432.17
2018-02-09T08:45:47.993Z,98438.91
2018-02-09T08:48:15.888Z,98432.30
2018-02-09T08:50:43.464Z,98432.19
2018-02-09T08:53:11.038Z,98431.23
2018-02-09T08:55:38.841Z,98430.63
2018-02-09T08:58:06.442Z,98428.15
2018-02-09T09:00:34.008Z,98432.55
2018-02-09T09:03:01.658Z,98433.33
2018-02-09T09:05:29.294Z,98431.11
2018-02-09T09:07:56.880Z,98429.33
2018-02-09T09:10:24.512Z,98427.12
2018-02-09T09:12:52.108Z,98420.84
2018-02-09T09:15:19.674Z,98420.67
2018-02-09T09:17:47.289Z,98415.98
2018-02-09T09:20:14.868Z,98417.13
2018-02-09T09:22:42.431Z,98408.27
2018-02-09T09:25:10.065Z,98407.04
2018-02-09T09:27:37.637Z,98405.12
2018-02-09T09:30:05.256Z,98384.22
2018-02-09T09:32:32.883Z,98387.52
2018-02-09T09:35:00.486Z,98385.95
2018-02-09T09:37:28.901Z,98384.67
2018-02-09T09:39:56.532Z,98387.02
2018-02-09T09:42:24.125Z,98387.25
2018-02-09T09:44:51.738Z,98382.22
2018-02-09T09:47:19.676Z,98388.54
2018-02-09T09:49:47.265Z,98379.67
2018-02-09T09:52:14.909Z,98374.84
2018-02-09T09:54:42.552Z,98372.66
2018-02-09T09:57:10.207Z,98361.41
2018-02-09T09:59:37.806Z,98369.63
2018-02-09T10:02:05.487Z,98365.38
2018-02-09T10:04:33.078Z,98366.70
2018-02-09T10:07:00.714Z,98370.48
2018-02-09T10:09:28.353Z,98367.08
2018-02-09T10:11:55.942Z,98367.66
2018-02-09T10:14:24.060Z,98367.47
2018-02-09T10:16:51.750Z,98372.34
2018-02-09T10:19:19.321Z,98366.38
2018-02-09T10:21:46.899Z,98367.02
2018-02-09T10:24:14.591Z,98358.70
2018-02-09T10:26:42.229Z,98359.41
2018-02-09T10:29:09.813Z,98360.95
2018-02-09T10:31:37.437Z,98351.62
2018-02-09T10:34:05.011Z,98350.48
2018-02-09T10:36:32.615Z,98353.94
2018-02-09T10:39:00.281Z,98349.84
2018-02-09T10:41:27.927Z,98346.61
2018-02-09T10:43:55.531Z,98344.27
2018-02-09T10:46:23.161Z,98348.52
2018-02-09T10:48:50.802Z,98347.04
2018-02-09T10:51:18.369Z,98355.14
2018-02-09T10:53:46.219Z,98360.79
2018-02-09T10:56:13.859Z,98346.62
2018-02-09T10:58:41.566Z,98342.41
2018-02-09T11:01:09.240Z,98339.92
2018-02-09T11:03:36.804Z,98338.61
2018-02-09T11:06:04.403Z,98331.00
2018-02-09T11:08:32.069Z,98325.86
2018-02-09T11:10:59.729Z,98320.39
2018-02-09T11:13:32.951Z,98313.39
2018-02-09T11:16:00.527Z,98321.97
2018-02-09T11:18:28.107Z,98313.95
2018-02-09T11:20:55.790Z,98302.31
2018-02-09T11:23:23.375Z,98299.16
2018-02-09T11:25:50.936Z,98299.92
2018-02-09T11:28:18.557Z,98294.49
2018-02-09T11:30:46.209Z,98296.45
2018-02-09T11:33:13.813Z,98292.47
2018-02-09T11:35:41.442Z,98276.98
2018-02-09T11:38:09.091Z,98282.73
2018-02-09T11:40:36.650Z,98293.33
2018-02-09T11:43:04.293Z,98285.87
2018-02-09T11:45:31.878Z,98284.77
2018-02-09T11:47:59.476Z,98297.73
2018-02-09T11:50:27.126Z,98293.28
2018-02-09T11:52:55.447Z,98294.75
2018-02-09T11:55:23.086Z,98294.22
2018-02-09T11:57:50.917Z,98292.55
2018-02-09T12:00:18.577Z,98280.30
2018-02-09T12:02:46.153Z,98283.52
2018-02-09T12:05:13.779Z,98275.90
2018-02-09T12:07:41.414Z,98276.52
2018-02-09T12:10:08.990Z,98272.25
2018-02-09T12:12:36.601Z,98272.28
2018-02-09T12:15:04.229Z,98278.22
2018-02-09T12:17:31.798Z,98277.63
2018-02-09T12:19:59.527Z,98273.39
2018-02-09T12:22:27.951Z,98262.98
2018-02-09T12:24:55.600Z,98270.94
2018-02-09T12:27:25.957Z,98262.70
2018-02-09T12:29:53.518Z,98269.13
2018-02-09T12:32:21.108Z,98266.48
2018-02-09T12:34:48.754Z,98272.50
2018-02-09T12:37:16.394Z,98273.95
2018-02-09T12:39:43.966Z,98278.47
2018-02-09T12:42:11.659Z,98283.07
2018-02-09T12:44:39.231Z,98286.85
2018-02-09T12:47:06.812Z,98292.20
2018-02-09T12:49:34.430Z,98291.05
2018-02-09T12:52:02.016Z,98298.59
2018-02-09T12:54:29.588Z,98285.98
2018-02-09T12:56:57.266Z,98283.59
2018-02-09T12:59:24.841Z,98277.36
2018-02-09T13:01:52.494Z,98284.02
2018-02-09T13:04:20.434Z,98292.83
2018-02-09T13:06:48.002Z,98291.05
2018-02-09T13:09:15.651Z,98290.21
2018-02-09T13:11:43.256Z,98287.55
2018-02-09T13:14:10.894Z,98274.09
2018-02-09T13:16:38.472Z,98276.67
2018-02-09T13:19:06.117Z,98283.81
2018-02-09T13:21:33.749Z,98283.30
2018-02-09T13:24:13.210Z,98275.71
2018-02-09T13:26:40.793Z,98276.37
2018-02-09T13:29:08.387Z,98275.03
2018-02-09T13:31:36.013Z,98280.53
2018-02-09T13:34:03.607Z,98279.55
2018-02-09T13:36:42.947Z,98271.68
2018-02-09T13:39:10.553Z,98272.81
2018-02-09T13:41:38.267Z,98260.73
2018-02-09T13:44:05.874Z,98256.84
2018-02-09T13:46:33.483Z,98273.17
2018-02-09T13:49:01.049Z,98274.01
2018-02-09T13:51:28.881Z,98272.70
2018-02-09T13:53:56.502Z,98274.64
2018-02-09T13:56:24.097Z,98266.95
2018-02-09T13:58:52.623Z,98259.55
2018-02-09T14:01:20.201Z,98257.70
2018-02-09T14:03:47.885Z,98255.06
2018-02-09T14:06:15.650Z,98260.61
2018-02-09T14:08:43.239Z,98254.39
2018-02-09T14:11:10.805Z,98249.80
2018-02-09T14:13:38.432Z,98253.78
2018-02-09T14:16:06.018Z,98246.05
2018-02-09T14:18:33.711Z,98243.47
2018-02-09T14:21:01.475Z,98244.56
2018-02-09T14:23:29.042Z,98247.88
2018-02-09T14:25:58.957Z,98244.52
2018-02-09T14:28:26.619Z,98243.58
2018-02-09T14:30:54.216Z,98248.77
2018-02-09T14:33:21.773Z,98248.22
2018-02-09T14:35:49.450Z,98240.52
2018-02-09T14:38:17.029Z,98249.16
2018-02-09T14:40:44.829Z,98250.58
2018-02-09T14:43:12.504Z,98249.77
2018-02-09T14:45:40.672Z,98257.91
2018-02-09T14:48:08.248Z,98251.25
2018-02-09T14:50:35.951Z,98253.56
2018-02-09T14:53:03.613Z,98251.91
2018-02-09T14:55:31.185Z,98258.63
2018-02-09T14:57:59.058Z,98264.47
2018-02-09T15:00:27.551Z,98269.18
2018-02-09T15:02:55.135Z,98268.88
2018-02-09T15:05:23.226Z,98264.69
2018-02-09T15:07:50.860Z,98267.62
2018-02-09T15:10:18.437Z,98266.56
2018-02-09T15:12:46.122Z,98272.28
2018-02-09T15:15:13.698Z,98269.22
2018-02-09T15:17:41.281Z,98268.98
2018-02-09T15:20:08.916Z,98271.05
2018-02-09T15:22:36.497Z,98277.07
2018-02-09T15:25:04.059Z,98276.83
2018-02-09T15:27:31.707Z,98284.38
2018-02-09T15:29:59.282Z,98284.22
2018-02-09T15:32:26.920Z,98290.23
2018-02-09T15:34:55.300Z,98294.59
2018-02-09T15:37:22.864Z,98296.81
2018-02-09T15:39:50.440Z,98298.14
2018-02-09T15:42:18.081Z,98306.63
2018-02-09T15:44:45.657Z,98298.98
2018-02-09T15:47:13.313Z,98300.73
2018-02-09T15:49:40.965Z,98307.75
2018-02-09T15:52:08.603Z,98306.06
2018-02-09T15:54:36.185Z,98307.97
2018-02-09T15:57:03.838Z,98312.61
2018-02-09T15:59:31.416Z,98309.63
2018-02-09T16:01:59.009Z,98308.77
2018-02-09T16:04:26.815Z,98309.16
2018-02-09T16:06:54.473Z,98311.83
2018-02-09T16:09:22.055Z,98319.14
2018-02-09T16:11:49.985Z,98316.72
2018-02-09T16:14:17.889Z,98314.73
2018-02-09T16:16:45.451Z,98320.61
2018-02-09T16:19:13.092Z,98324.22
2018-02-09T16:21:40.669Z,98317.77
2018-02-09T16:24:08.311Z,98323.32
2018-02-09T16:26:35.934Z,98324.73
2018-02-09T16:29:03.526Z,98321.91
2018-02-09T16:31:31.123Z,98314.81
2018-02-09T16:33:58.745Z,98314.06
2018-02-09T16:36:26.547Z,98316.25
2018-02-09T16:38:54.125Z,98315.55
2018-02-09T16:41:21.785Z,98313.38
2018-02-09T16:43:49.506Z,98311.23
2018-02-09T16:46:17.104Z,98320.72
2018-02-09T16:48:44.818Z,98323.92
2018-02-09T16:51:12.413Z,98323.04
2018-02-09T16:53:39.990Z,98325.77
2018-02-09T16:56:07.627Z,98323.79
2018-02-09T16:58:35.221Z,98328.33
2018-02-09T17:01:02.850Z,98330.56
2018-02-09T17:03:30.485Z,98330.34
2018-02-09T17:05:58.063Z,98328.28
2018-02-09T17:08:25.764Z,98325.88
2018-02-09T17:10:53.389Z,98334.30
2018-02-09T17:13:20.974Z,98330.63
2018-02-09T17:15:48.569Z,98331.33
2018-02-09T17:18:16.238Z,98329.52
2018-02-09T17:20:43.833Z,98329.13
2018-02-09T17:23:11.412Z,98329.46
2018-02-09T17:25:39.046Z,98337.78
2018-02-09T17:28:06.766Z,98334.36
2018-02-09T17:30:34.353Z,98334.67
2018-02-09T17:33:02.584Z,98342.00
2018-02-09T17:35:30.147Z,98347.58
2018-02-09T17:37:57.788Z,98355.25
2018-02-09T17:40:25.477Z,98359.41
2018-02-09T17:42:53.089Z,98346.41
2018-02-09T17:45:20.675Z,98352.46
2018-02-09T17:47:48.373Z,98354.01
2018-02-09T17:50:16.491Z,98356.45
2018-02-09T17:52:44.175Z,98356.45
2018-02-09T17:55:11.787Z,98360.15
2018-02-09T17:57:39.421Z,98360.94
2018-02-09T18:00:07.009Z,98360.43
2018-02-09T18:02:34.840Z,98364.05
2018-02-09T18:05:02.432Z,98359.08
2018-02-09T18:07:30.065Z,98358.91
2018-02-09T18:09:57.827Z,98368.52
2018-02-09T18:12:25.412Z,98367.08
2018-02-09T18:14:52.985Z,98375.59
2018-02-09T18:17:20.689Z,98375.64
2018-02-09T18:19:48.280Z,98377.88
2018-02-09T18:22:15.856Z,98386.92
2018-02-09T18:24:43.497Z,98392.09
2018-02-09T18:27:11.071Z,98391.95
2018-02-09T18:29:38.702Z,98401.22
2018-02-09T18:32:06.361Z,98405.36
2018-02-09T18:34:35.206Z,98402.13
2018-02-09T18:37:02.796Z,98392.44
2018-02-09T18:39:30.448Z,98405.57
2018-02-09T18:41:58.660Z,98413.21
2018-02-09T18:44:26.254Z,98413.30
2018-02-09T18:46:53.936Z,98411.64
2018-02-09T18:49:21.505Z,98420.14
2018-02-09T18:51:49.080Z,98423.52
2018-02-09T18:54:16.778Z,98427.76
2018-02-09T18:56:44.360Z,98430.25
2018-02-09T18:59:11.938Z,98433.63
2018-02-09T19:01:39.601Z,98439.70
2018-02-09T19:04:07.174Z,98436.09
2018-02-09T19:06:34.835Z,98434.00
2018-02-09T19:09:02.699Z,98430.69
2018-02-09T19:11:30.335Z,98448.12
2018-02-09T19:13:57.933Z,98454.13
2018-02-09T19:16:25.573Z,98462.02
2018-02-09T19:18:53.144Z,98463.88
2018-02-09T19:21:20.725Z,98467.67
2018-02-09T19:23:48.355Z,98468.71
2018-02-09T19:26:16.545Z,98473.98
2018-02-09T19:28:44.120Z,98485.01
2018-02-09T19:31:11.831Z,98483.58
2018-02-09T19:33:39.473Z,98483.58
2018-02-09T19:36:07.040Z,98487.62
2018-02-09T19:38:34.676Z,98479.63
2018-02-09T19:41:02.257Z,98486.36
2018-02-09T19:43:29.850Z,98480.55
2018-02-09T19:45:57.471Z,98479.05
2018-02-09T19:48:25.129Z,98488.47
2018-02-09T19:50:52.712Z,98497.38
2018-02-09T19:53:21.285Z,98493.00
2018-02-09T19:55:48.861Z,98487.47
2018-02-09T19:58:16.433Z,98481.40
2018-02-09T20:00:44.027Z,98477.78
2018-02-09T20:03:11.603Z,98476.02
2018-02-09T20:05:39.178Z,98492.16
2018-02-09T20:08:06.804Z,98496.95
2018-02-09T20:10:34.370Z,98496.77
2018-02-09T20:13:02.077Z,98488.03
2018-02-09T20:15:29.723Z,98489.88
2018-02-09T20:17:57.321Z,98486.77
2018-02-09T20:20:24.890Z,98487.69
2018-02-09T20:22:52.581Z,98486.53
2018-02-09T20:25:20.184Z,98488.27
2018-02-09T20:27:47.751Z,98488.96
2018-02-09T20:30:15.759Z,98488.54
2018-02-09T20:32:43.340Z,98487.78
2018-02-09T20:35:10.897Z,98496.77
2018-02-09T20:37:38.531Z,98486.78
2018-02-09T20:40:06.101Z,98496.19
2018-02-09T20:42:33.804Z,98493.92
2018-02-09T20:45:01.391Z,98492.98
2018-02-09T20:47:29.033Z,98486.67
2018-02-09T20:49:56.665Z,98473.80
2018-02-09T20:52:24.324Z,98478.75
2018-02-09T20:54:51.913Z,98477.55
2018-02-09T20:57:19.491Z,98482.12
2018-02-09T20:59:49.155Z,98474.69
2018-02-09T21:02:16.735Z,98473.67
2018-02-09T21:04:44.323Z,98468.09
2018-02-09T21:07:12.245Z,98473.91
2018-02-09T21:09:39.833Z,98478.61
2018-02-09T21:12:07.396Z,98472.30
2018-02-09T21:14:35.193Z,98466.84
2018-02-09T21:17:02.861Z,98456.23
2018-02-09T21:19:30.437Z,98446.48
2018-02-09T21:21:58.101Z,98451.30
2018-02-09T21:24:25.731Z,98457.77
2018-02-09T21:26:53.300Z,98455.27
2018-02-09T21:29:21.282Z,98460.30
2018-02-09T21:31:48.879Z,98462.30
2018-02-09T21:34:16.453Z,98459.72
2018-02-09T21:36:44.199Z,98465.33
2018-02-09T21:39:11.768Z,98467.77
2018-02-09T21:41:39.356Z,98457.50
2018-02-09T21:44:07.191Z,98456.13
2018-02-09T21:46:34.842Z,98463.34
2018-02-09T21:49:02.481Z,98454.00
2018-02-09T21:51:30.105Z,98454.33
2018-02-09T21:53:57.820Z,98460.77
2018-02-09T21:56:25.395Z,98460.54
2018-02-09T21:58:53.051Z,98451.47
2018-02-09T22:01:21.261Z,98451.70
2018-02-09T22:03:48.830Z,98456.98
2018-02-09T22:06:16.451Z,98466.06
2018-02-09T22:08:44.054Z,98481.59
2018-02-09T22:11:11.621Z,98491.17
2018-02-09T22:13:39.260Z,98492.83
2018-02-09T22:16:07.252Z,98490.40
2018-02-09T22:18:34.840Z,98492.89
2018-02-09T22:21:02.521Z,98493.56
2018-02-09T22:23:30.118Z,98489.28
2018-02-09T22:25:58.106Z,98490.64
2018-02-09T22:28:26.604Z,98487.66
2018-02-09T22:30:54.205Z,98492.89
2018-02-09T22:33:21.781Z,98487.11
2018-02-09T22:35:49.416Z,98492.69
2018-02-09T22:38:17.066Z,98484.86
2018-02-09T22:40:44.638Z,98480.40
2018-02-09T22:43:13.002Z,98483.18
2018-02-09T22:45:40.582Z,98469.90
2018-02-09T22:48:08.682Z,98470.86
2018-02-09T22:50:36.397Z,98484.36
2018-02-09T22:53:03.983Z,98478.26
2018-02-09T22:55:31.796Z,98467.00
2018-02-09T22:57:59.467Z,98453.58
2018-02-09T23:00:27.060Z,98456.91
2018-02-09T23:02:54.666Z,98455.22
2018-02-09T23:05:22.364Z,98441.88
2018-02-09T23:07:49.945Z,98443.22
2018-02-09T23:10:17.543Z,98448.08
2018-02-09T23:12:45.182Z,98447.66
2018-02-09T23:15:13.148Z,98437.75
2018-02-09T23:17:40.840Z,98437.94
2018-02-09T23:20:08.489Z,98440.84
2018-02-09T23:22:36.137Z,98441.84
2018-02-09T23:25:03.739Z,98458.80
2018-02-09T23:27:31.673Z,98459.55
2018-02-09T23:29:59.261Z,98457.52
2018-02-09T23:32:26.885Z,98468.55
2018-02-09T23:34:54.529Z,98470.16
2018-02-09T23:37:22.109Z,98469.73
2018-02-09T23:39:49.689Z,98463.09
2018-02-09T23:42:17.373Z,98464.09
2018-02-09T23:44:44.941Z,98457.47
2018-02-09T23:47:12.494Z,98456.69
2018-02-09T23:49:40.189Z,98455.00
2018-02-09T23:52:07.829Z,98452.39
2018-02-09T23:54:35.399Z,98456.42
2018-02-09T23:57:03.102Z,98457.59
2018-02-09T23:59:30.681Z,98464.53
